createdAt,value
2023-08-18T00:00:33.105Z,394
2023-08-18T00:01:34.303Z,395
2023-08-18T00:02:32.236Z,397
2023-08-18T00:03:32.206Z,399
2023-08-18T00:04:32.138Z,392
2023-08-18T00:06:31.726Z,393
2023-08-18T00:07:31.508Z,391
2023-08-18T00:08:31.405Z,384
2023-08-18T00:09:32.159Z,393
2023-08-18T00:10:32.174Z,386
2023-08-18T00:11:31.172Z,387
2023-08-18T00:13:32.165Z,392
2023-08-18T00:15:31.542Z,403
2023-08-18T00:16:31.597Z,405
2023-08-18T00:17:32.640Z,404
2023-08-18T00:18:31.918Z,399
2023-08-18T00:19:31.770Z,400
2023-08-18T00:20:31.806Z,398
2023-08-18T00:21:32.238Z,401
2023-08-18T00:22:31.820Z,404
2023-08-18T00:23:31.620Z,402
2023-08-18T00:24:31.333Z,394
2023-08-18T00:25:32.308Z,393
2023-08-18T00:26:31.515Z,398
2023-08-18T00:28:31.361Z,400
2023-08-18T00:29:31.847Z,391
2023-08-18T00:30:31.746Z,395
2023-08-18T00:31:31.761Z,416
2023-08-18T00:32:31.929Z,407
2023-08-18T00:33:31.368Z,403
2023-08-18T00:34:31.730Z,406
2023-08-18T00:35:31.233Z,407
2023-08-18T00:37:31.611Z,411
2023-08-18T00:38:31.454Z,410
2023-08-18T00:39:31.691Z,422
2023-08-18T00:41:31.339Z,412
2023-08-18T00:42:31.766Z,413
2023-08-18T00:43:31.612Z,412
2023-08-18T00:44:31.771Z,411
2023-08-18T00:45:32.025Z,399
2023-08-18T00:46:31.402Z,409
2023-08-18T00:47:32.726Z,406
2023-08-18T00:48:31.270Z,405
2023-08-18T00:49:31.398Z,406
2023-08-18T00:50:31.773Z,407
2023-08-18T00:51:31.245Z,400
2023-08-18T00:52:31.214Z,405
2023-08-18T00:53:31.442Z,407
2023-08-18T00:55:32.156Z,411
2023-08-18T00:56:31.967Z,407
2023-08-18T00:57:31.452Z,401
2023-08-18T00:58:31.350Z,402
2023-08-18T00:59:31.928Z,405
2023-08-18T01:00:32.026Z,407
2023-08-18T01:01:31.572Z,404
2023-08-18T01:02:31.927Z,405
2023-08-18T01:03:31.524Z,394
2023-08-18T01:04:31.641Z,395
2023-08-18T01:05:31.516Z,403
2023-08-18T01:06:31.626Z,412
2023-08-18T01:07:31.892Z,419
2023-08-18T01:08:31.063Z,407
2023-08-18T01:09:31.761Z,399
2023-08-18T01:10:31.131Z,397
2023-08-18T01:11:31.282Z,403
2023-08-18T01:12:31.381Z,408
2023-08-18T01:13:31.910Z,409
2023-08-18T01:14:31.468Z,401
2023-08-18T01:15:31.813Z,411
2023-08-18T01:16:31.139Z,412
2023-08-18T01:17:31.677Z,414
2023-08-18T01:18:31.546Z,406
2023-08-18T01:19:31.778Z,404
2023-08-18T01:20:31.055Z,410
2023-08-18T01:21:31.734Z,406
2023-08-18T01:22:31.495Z,413
2023-08-18T01:23:31.768Z,411
2023-08-18T01:24:31.526Z,401
2023-08-18T01:25:31.991Z,405
2023-08-18T01:26:31.655Z,412
2023-08-18T01:27:31.624Z,414
2023-08-18T01:28:31.816Z,401
2023-08-18T01:29:31.335Z,405
2023-08-18T01:30:31.884Z,388
2023-08-18T01:31:31.518Z,401
2023-08-18T01:32:31.437Z,411
2023-08-18T01:33:31.404Z,422
2023-08-18T01:34:31.673Z,423
2023-08-18T01:35:31.423Z,425
2023-08-18T01:36:32.008Z,411
2023-08-18T01:37:31.516Z,402
2023-08-18T01:38:31.249Z,392
2023-08-18T01:39:31.658Z,387
2023-08-18T01:40:31.348Z,394
2023-08-18T01:41:31.347Z,402
2023-08-18T01:42:31.680Z,404
2023-08-18T01:43:30.689Z,406
2023-08-18T01:44:31.642Z,421
2023-08-18T01:45:32.115Z,423
2023-08-18T01:46:31.790Z,411
2023-08-18T01:47:31.469Z,412
2023-08-18T01:48:31.116Z,398
2023-08-18T01:49:31.312Z,400
2023-08-18T01:50:31.457Z,396
2023-08-18T01:51:32.023Z,417
2023-08-18T01:52:31.857Z,416
2023-08-18T01:53:31.203Z,410
2023-08-18T01:54:31.461Z,395
2023-08-18T01:55:31.425Z,398
2023-08-18T01:56:31.454Z,406
2023-08-18T01:57:31.779Z,415
2023-08-18T01:58:31.283Z,408
2023-08-18T01:59:31.409Z,399
2023-08-18T02:00:32.392Z,405
2023-08-18T02:01:31.512Z,408
2023-08-18T02:02:31.859Z,413
2023-08-18T02:03:31.519Z,409
2023-08-18T02:04:31.134Z,407
2023-08-18T02:05:31.317Z,403
2023-08-18T02:06:31.311Z,409
2023-08-18T02:07:31.396Z,395
2023-08-18T02:08:32.035Z,405
2023-08-18T02:09:31.474Z,408
2023-08-18T02:11:31.048Z,412
2023-08-18T02:12:31.668Z,402
2023-08-18T02:13:31.511Z,412
2023-08-18T02:14:31.628Z,416
2023-08-18T02:15:31.317Z,412
2023-08-18T02:16:31.844Z,406
2023-08-18T02:18:31.083Z,396
2023-08-18T02:19:31.759Z,391
2023-08-18T02:21:31.589Z,402
2023-08-18T02:22:31.328Z,390
2023-08-18T02:23:31.694Z,384
2023-08-18T02:24:31.100Z,377
2023-08-18T02:25:31.330Z,381
2023-08-18T02:26:32.001Z,392
2023-08-18T02:27:31.497Z,387
2023-08-18T02:28:31.359Z,377
2023-08-18T02:29:31.753Z,382
2023-08-18T02:30:31.508Z,388
2023-08-18T02:31:32.003Z,399
2023-08-18T02:32:31.310Z,403
2023-08-18T02:33:31.489Z,395
2023-08-18T02:34:31.631Z,390
2023-08-18T02:35:31.312Z,407
2023-08-18T02:36:31.921Z,398
2023-08-18T02:37:31.674Z,396
2023-08-18T02:38:31.258Z,398
2023-08-18T02:39:31.364Z,395
2023-08-18T02:40:31.751Z,399
2023-08-18T02:41:31.161Z,396
2023-08-18T02:42:32.032Z,401
2023-08-18T02:43:31.636Z,397
2023-08-18T02:44:31.888Z,392
2023-08-18T02:45:31.664Z,401
2023-08-18T02:48:31.255Z,399
2023-08-18T02:49:31.478Z,392
2023-08-18T02:50:31.723Z,391
2023-08-18T02:51:31.024Z,386
2023-08-18T02:52:31.464Z,381
2023-08-18T02:53:31.779Z,378
2023-08-18T02:54:31.345Z,390
2023-08-18T02:55:31.606Z,388
2023-08-18T02:56:31.923Z,378
2023-08-18T02:57:31.614Z,377
2023-08-18T02:58:31.138Z,369
2023-08-18T02:59:31.171Z,365
2023-08-18T03:00:32.035Z,363
2023-08-18T03:01:31.309Z,364
2023-08-18T03:03:32.075Z,355
2023-08-18T03:04:31.993Z,345
2023-08-18T03:05:31.902Z,341
2023-08-18T03:06:31.393Z,359
2023-08-18T03:07:32.137Z,357
2023-08-18T03:08:31.845Z,354
2023-08-18T03:09:31.645Z,349
2023-08-18T03:10:31.487Z,340
2023-08-18T03:11:32.136Z,345
2023-08-18T03:12:31.175Z,350
2023-08-18T03:13:31.471Z,348
2023-08-18T03:14:32.114Z,347
2023-08-18T03:15:32.398Z,352
2023-08-18T03:17:32.221Z,349
2023-08-18T03:18:31.191Z,351
2023-08-18T03:19:31.795Z,346
2023-08-18T03:21:31.838Z,345
2023-08-18T03:22:31.846Z,346
2023-08-18T03:23:31.706Z,347
2023-08-18T03:24:32.070Z,342
2023-08-18T03:25:31.550Z,331
2023-08-18T03:26:31.943Z,333
2023-08-18T03:27:32.004Z,335
2023-08-18T03:28:31.508Z,354
2023-08-18T03:29:30.894Z,353
2023-08-18T03:30:31.410Z,346
2023-08-18T03:31:31.636Z,347
2023-08-18T03:32:31.914Z,346
2023-08-18T03:33:31.537Z,345
2023-08-18T03:34:31.540Z,344
2023-08-18T03:35:31.245Z,338
2023-08-18T03:36:31.712Z,331
2023-08-18T03:37:32.230Z,339
2023-08-18T03:38:31.445Z,345
2023-08-18T03:39:31.608Z,344
2023-08-18T03:40:31.930Z,342
2023-08-18T03:41:31.281Z,338
2023-08-18T03:42:31.329Z,331
2023-08-18T03:43:32.117Z,324
2023-08-18T03:44:31.487Z,326
2023-08-18T03:45:32.106Z,342
2023-08-18T03:46:31.797Z,339
2023-08-18T03:47:31.655Z,338
2023-08-18T03:48:31.841Z,345
2023-08-18T03:49:31.164Z,347
2023-08-18T03:50:31.682Z,333
2023-08-18T03:51:31.063Z,346
2023-08-18T03:52:31.461Z,351
2023-08-18T03:53:31.904Z,343
2023-08-18T03:54:31.454Z,342
2023-08-18T03:55:31.835Z,338
2023-08-18T03:57:31.854Z,342
2023-08-18T03:58:31.691Z,353
2023-08-18T03:59:31.128Z,349
2023-08-18T04:00:32.070Z,338
2023-08-18T04:01:31.375Z,329
2023-08-18T04:02:32.276Z,331
2023-08-18T04:03:31.351Z,334
2023-08-18T04:04:32.063Z,338
2023-08-18T04:05:31.544Z,350
2023-08-18T04:06:32.202Z,347
2023-08-18T04:08:32.226Z,342
2023-08-18T04:09:31.988Z,332
2023-08-18T04:10:31.717Z,339
2023-08-18T04:11:31.790Z,340
2023-08-18T04:12:32.731Z,349
2023-08-18T04:13:31.138Z,335
2023-08-18T04:14:32.143Z,331
2023-08-18T04:15:31.999Z,335
2023-08-18T04:16:31.641Z,333
2023-08-18T04:17:32.328Z,335
2023-08-18T04:18:31.876Z,331
2023-08-18T04:19:31.422Z,342
2023-08-18T04:20:31.856Z,341
2023-08-18T04:21:31.741Z,335
2023-08-18T04:22:32.102Z,329
2023-08-18T04:23:31.552Z,343
2023-08-18T04:24:31.429Z,350
2023-08-18T04:25:31.853Z,345
2023-08-18T04:26:31.558Z,333
2023-08-18T04:27:31.965Z,327
2023-08-18T04:28:31.827Z,340
2023-08-18T04:29:31.512Z,335
2023-08-18T04:30:32.687Z,338
2023-08-18T04:31:31.718Z,346
2023-08-18T04:32:32.015Z,342
2023-08-18T04:33:31.838Z,354
2023-08-18T04:34:31.675Z,356
2023-08-18T04:35:31.842Z,347
2023-08-18T04:36:32.003Z,341
2023-08-18T04:37:31.705Z,333
2023-08-18T04:38:31.717Z,330
2023-08-18T04:39:32.097Z,336
2023-08-18T04:40:32.256Z,345
2023-08-18T04:41:32.370Z,344
2023-08-18T04:42:32.379Z,348
2023-08-18T04:43:31.736Z,341
2023-08-18T04:44:31.961Z,328
2023-08-18T04:46:31.735Z,324
2023-08-18T04:47:32.262Z,340
2023-08-18T04:48:32.225Z,338
2023-08-18T04:49:32.047Z,335
2023-08-18T04:50:32.121Z,350
2023-08-18T04:51:31.995Z,349
2023-08-18T04:52:31.836Z,348
2023-08-18T04:53:31.739Z,346
2023-08-18T04:54:31.511Z,338
2023-08-18T04:55:31.353Z,333
2023-08-18T04:56:32.241Z,343
2023-08-18T04:57:31.644Z,350
2023-08-18T04:58:32.223Z,349
2023-08-18T04:59:32.005Z,341
2023-08-18T05:00:32.547Z,336
2023-08-18T05:01:32.026Z,329
2023-08-18T05:02:31.722Z,331
2023-08-18T05:03:31.691Z,339
2023-08-18T05:04:31.733Z,341
2023-08-18T05:05:31.909Z,353
2023-08-18T05:06:32.210Z,349
2023-08-18T05:07:32.146Z,335
2023-08-18T05:08:32.029Z,325
2023-08-18T05:09:31.718Z,334
2023-08-18T05:10:31.468Z,345
2023-08-18T05:11:31.624Z,337
2023-08-18T05:12:31.995Z,344
2023-08-18T05:13:31.944Z,355
2023-08-18T05:14:32.133Z,359
2023-08-18T05:15:32.767Z,356
2023-08-18T05:16:32.005Z,368
2023-08-18T05:17:31.867Z,373
2023-08-18T05:18:32.890Z,369
2023-08-18T05:19:32.758Z,386
2023-08-18T05:20:32.926Z,394
2023-08-18T05:21:33.088Z,390
2023-08-18T05:22:32.673Z,385
2023-08-18T05:23:32.820Z,392
2023-08-18T05:24:33.327Z,390
2023-08-18T05:25:32.558Z,387
2023-08-18T05:26:32.587Z,402
2023-08-18T05:27:33.030Z,396
2023-08-18T05:28:32.525Z,391
2023-08-18T05:29:32.575Z,388
2023-08-18T05:30:32.905Z,389
2023-08-18T05:31:32.365Z,384
2023-08-18T05:32:32.876Z,378
2023-08-18T05:33:32.209Z,369
2023-08-18T05:34:32.480Z,361
2023-08-18T05:35:32.138Z,363
2023-08-18T05:37:31.844Z,367
2023-08-18T05:38:32.378Z,366
2023-08-18T05:39:32.190Z,369
2023-08-18T05:40:32.273Z,365
2023-08-18T05:42:32.602Z,354
2023-08-18T05:43:31.896Z,357
2023-08-18T05:44:31.912Z,356
2023-08-18T05:45:32.093Z,363
2023-08-18T05:46:31.987Z,365
2023-08-18T05:47:32.153Z,363
2023-08-18T05:48:31.947Z,358
2023-08-18T05:49:32.039Z,363
2023-08-18T05:50:32.312Z,366
2023-08-18T05:51:32.421Z,365
2023-08-18T05:52:32.110Z,360
2023-08-18T05:53:31.829Z,353
2023-08-18T05:54:31.780Z,367
2023-08-18T05:55:31.786Z,357
2023-08-18T05:56:31.901Z,362
2023-08-18T05:57:32.553Z,368
2023-08-18T05:58:32.378Z,370
2023-08-18T05:59:31.656Z,369
2023-08-18T06:00:32.410Z,362
2023-08-18T06:01:31.906Z,373
2023-08-18T06:02:32.459Z,359
2023-08-18T06:03:32.328Z,353
2023-08-18T06:04:31.642Z,364
2023-08-18T06:05:32.054Z,356
2023-08-18T06:06:32.716Z,364
2023-08-18T06:07:31.809Z,360
2023-08-18T06:08:32.162Z,366
2023-08-18T06:09:31.836Z,367
2023-08-18T06:10:32.227Z,374
2023-08-18T06:11:32.386Z,362
2023-08-18T06:12:32.045Z,346
2023-08-18T06:13:32.407Z,345
2023-08-18T06:14:31.912Z,346
2023-08-18T06:15:32.544Z,344
2023-08-18T06:17:32.516Z,349
2023-08-18T06:18:32.673Z,354
2023-08-18T06:19:32.319Z,358
2023-08-18T06:20:32.905Z,353
2023-08-18T06:21:32.573Z,350
2023-08-18T06:22:32.514Z,353
2023-08-18T06:23:32.308Z,352
2023-08-18T06:24:32.003Z,355
2023-08-18T06:25:32.055Z,364
2023-08-18T06:26:32.342Z,361
2023-08-18T06:27:32.289Z,354
2023-08-18T06:28:32.059Z,353
2023-08-18T06:29:32.326Z,361
2023-08-18T06:30:32.126Z,365
2023-08-18T06:31:32.749Z,348
2023-08-18T06:32:32.347Z,354
2023-08-18T06:33:31.995Z,356
2023-08-18T06:34:32.524Z,343
2023-08-18T06:36:31.860Z,347
2023-08-18T06:37:32.185Z,349
2023-08-18T06:38:32.427Z,350
2023-08-18T06:39:32.017Z,357
2023-08-18T06:40:32.436Z,361
2023-08-18T06:41:32.160Z,340
2023-08-18T06:42:32.589Z,332
2023-08-18T06:43:32.093Z,338
2023-08-18T06:44:32.444Z,351
2023-08-18T06:45:32.152Z,352
2023-08-18T06:46:32.013Z,356
2023-08-18T06:47:33.244Z,350
2023-08-18T06:48:32.566Z,353
2023-08-18T06:49:31.978Z,358
2023-08-18T06:50:32.913Z,347
2023-08-18T06:51:32.076Z,349
2023-08-18T06:52:32.762Z,347
2023-08-18T06:53:32.133Z,346
2023-08-18T06:54:32.156Z,345
2023-08-18T06:55:50.052Z,343
2023-08-18T06:56:46.804Z,350
2023-08-18T06:57:36.485Z,349
2023-08-18T06:59:31.718Z,346
2023-08-18T07:00:33.101Z,350
2023-08-18T07:01:32.547Z,356
2023-08-18T07:02:32.643Z,359
2023-08-18T07:03:32.429Z,351
2023-08-18T07:04:32.327Z,360
2023-08-18T07:05:31.958Z,353
2023-08-18T07:06:32.400Z,346
2023-08-18T07:07:31.352Z,357
2023-08-18T07:08:31.534Z,359
2023-08-18T07:09:31.997Z,355
2023-08-18T07:10:32.377Z,350
2023-08-18T07:11:32.433Z,357
2023-08-18T07:12:32.401Z,354
2023-08-18T07:13:31.625Z,360
2023-08-18T07:14:31.904Z,354
2023-08-18T07:15:32.221Z,350
2023-08-18T07:16:32.263Z,343
2023-08-18T07:17:31.847Z,349
2023-08-18T07:18:32.625Z,342
2023-08-18T07:19:31.910Z,357
2023-08-18T07:20:32.347Z,358
2023-08-18T07:21:32.895Z,348
2023-08-18T07:22:32.411Z,349
2023-08-18T07:23:32.209Z,350
2023-08-18T07:24:32.637Z,363
2023-08-18T07:25:32.645Z,355
2023-08-18T07:26:32.482Z,349
2023-08-18T07:27:31.793Z,365
2023-08-18T07:28:32.509Z,355
2023-08-18T07:29:31.827Z,351
2023-08-18T07:30:32.709Z,352
2023-08-18T07:31:32.721Z,358
2023-08-18T07:32:32.633Z,353
2023-08-18T07:33:31.809Z,350
2023-08-18T07:34:32.022Z,361
2023-08-18T07:35:32.010Z,358
2023-08-18T07:37:54.136Z,363
2023-08-18T07:38:45.741Z,368
2023-08-18T07:39:37.971Z,367
2023-08-18T07:40:32.470Z,369
2023-08-18T07:41:32.130Z,374
2023-08-18T07:42:32.708Z,366
2023-08-18T07:43:32.557Z,367
2023-08-18T07:44:32.145Z,370
2023-08-18T07:45:32.628Z,357
2023-08-18T07:46:32.431Z,350
2023-08-18T07:47:32.388Z,352
2023-08-18T07:48:31.848Z,351
2023-08-18T07:49:31.942Z,356
2023-08-18T07:50:32.282Z,349
2023-08-18T07:51:32.825Z,368
2023-08-18T07:53:31.793Z,358
2023-08-18T07:54:32.024Z,360
2023-08-18T07:55:32.681Z,359
2023-08-18T07:56:32.119Z,365
2023-08-18T07:57:32.546Z,367
2023-08-18T07:58:32.249Z,359
2023-08-18T07:59:33.294Z,366
2023-08-18T08:00:33.164Z,361
2023-08-18T08:01:32.510Z,354
2023-08-18T08:02:32.700Z,358
2023-08-18T08:03:32.448Z,363
2023-08-18T08:04:32.610Z,357
2023-08-18T08:05:32.301Z,359
2023-08-18T08:06:32.037Z,356
2023-08-18T08:07:32.562Z,352
2023-08-18T08:08:32.664Z,360
2023-08-18T08:11:32.059Z,369
2023-08-18T08:12:32.682Z,365
2023-08-18T08:13:32.645Z,351
2023-08-18T08:14:32.855Z,352
2023-08-18T08:15:34.622Z,349
2023-08-18T08:16:32.008Z,357
2023-08-18T08:17:32.720Z,358
2023-08-18T08:18:32.698Z,345
2023-08-18T08:19:32.213Z,343
2023-08-18T08:20:32.800Z,339
2023-08-18T08:21:36.788Z,343
2023-08-18T08:22:32.017Z,352
2023-08-18T08:25:32.252Z,349
2023-08-18T08:26:32.033Z,356
2023-08-18T08:27:32.429Z,360
2023-08-18T08:28:32.370Z,374
2023-08-18T08:29:32.614Z,364
2023-08-18T08:31:32.245Z,357
2023-08-18T08:32:32.280Z,356
2023-08-18T08:33:32.623Z,354
2023-08-18T08:36:32.052Z,358
2023-08-18T08:37:38.164Z,362
2023-08-18T08:38:32.588Z,359
2023-08-18T08:39:32.539Z,360
2023-08-18T08:40:31.939Z,343
2023-08-18T08:41:32.352Z,347
2023-08-18T08:42:32.295Z,357
2023-08-18T08:43:32.328Z,352
2023-08-18T08:44:32.425Z,340
2023-08-18T08:45:32.545Z,359
2023-08-18T08:46:32.574Z,354
2023-08-18T08:47:32.098Z,355
2023-08-18T08:48:31.819Z,353
2023-08-18T08:49:31.946Z,343
2023-08-18T08:50:33.054Z,347
2023-08-18T08:51:36.342Z,342
2023-08-18T08:52:32.621Z,343
2023-08-18T08:53:32.060Z,337
2023-08-18T08:54:32.292Z,340
2023-08-18T08:55:31.936Z,346
2023-08-18T08:56:31.563Z,353
2023-08-18T08:57:31.746Z,350
2023-08-18T08:58:32.359Z,352
2023-08-18T08:59:32.016Z,347
2023-08-18T09:00:33.067Z,349
2023-08-18T09:01:32.500Z,357
2023-08-18T09:02:32.100Z,350
2023-08-18T09:03:32.336Z,354
2023-08-18T09:04:32.430Z,348
2023-08-18T09:05:32.478Z,343
2023-08-18T09:06:33.431Z,345
2023-08-18T09:07:32.860Z,349
2023-08-18T09:08:32.970Z,355
2023-08-18T09:09:33.231Z,345
2023-08-18T09:10:32.538Z,342
2023-08-18T09:11:32.616Z,346
2023-08-18T09:12:34.337Z,344
2023-08-18T09:13:32.510Z,350
2023-08-18T09:14:32.620Z,341
2023-08-18T09:15:33.026Z,351
2023-08-18T09:16:32.966Z,347
2023-08-18T09:17:33.732Z,339
2023-08-18T09:19:32.975Z,345
2023-08-18T09:20:32.548Z,349
2023-08-18T09:21:32.378Z,344
2023-08-18T09:22:33.070Z,335
2023-08-18T09:23:32.661Z,342
2023-08-18T09:24:32.690Z,332
2023-08-18T09:25:33.268Z,341
2023-08-18T09:26:32.625Z,350
2023-08-18T09:27:32.727Z,345
2023-08-18T09:28:32.575Z,339
2023-08-18T09:29:35.159Z,341
2023-08-18T09:30:32.436Z,347
2023-08-18T09:31:32.624Z,352
2023-08-18T09:32:32.948Z,353
2023-08-18T09:33:35.088Z,357
2023-08-18T09:34:33.631Z,344
2023-08-18T09:36:32.612Z,343
2023-08-18T09:37:32.890Z,335
2023-08-18T09:38:36.517Z,343
2023-08-18T09:40:31.585Z,357
2023-08-18T09:41:32.668Z,352
2023-08-18T09:42:32.451Z,334
2023-08-18T09:43:33.194Z,328
2023-08-18T09:44:33.141Z,340
2023-08-18T09:45:32.770Z,339
2023-08-18T09:46:32.637Z,335
2023-08-18T09:47:32.539Z,340
2023-08-18T09:48:32.755Z,352
2023-08-18T09:49:32.482Z,351
2023-08-18T09:50:33.230Z,355
2023-08-18T09:51:32.640Z,345
2023-08-18T09:52:33.036Z,350
2023-08-18T09:53:32.456Z,349
2023-08-18T09:54:33.082Z,331
2023-08-18T09:55:32.771Z,327
2023-08-18T09:56:32.739Z,338
2023-08-18T09:57:33.370Z,350
2023-08-18T09:58:33.689Z,357
2023-08-18T09:59:32.118Z,351
2023-08-18T10:00:34.431Z,342
2023-08-18T10:01:33.008Z,329
2023-08-18T10:02:33.268Z,328
2023-08-18T10:03:33.097Z,332
2023-08-18T10:04:33.402Z,347
2023-08-18T10:05:32.696Z,355
2023-08-18T10:06:33.946Z,347
2023-08-18T10:07:32.867Z,341
2023-08-18T10:08:32.744Z,345
2023-08-18T10:09:33.188Z,348
2023-08-18T10:10:33.087Z,360
2023-08-18T10:11:45.016Z,338
2023-08-18T10:12:42.745Z,340
2023-08-18T10:13:36.371Z,349
2023-08-18T10:14:33.646Z,342
2023-08-18T10:15:33.163Z,343
2023-08-18T10:16:33.305Z,352
2023-08-18T10:17:32.929Z,351
2023-08-18T10:18:33.038Z,342
2023-08-18T10:19:32.917Z,336
2023-08-18T10:20:33.053Z,337
2023-08-18T10:21:33.971Z,328
2023-08-18T10:22:33.989Z,324
2023-08-18T10:24:33.362Z,334
2023-08-18T10:26:32.798Z,331
2023-08-18T10:27:32.612Z,322
2023-08-18T10:28:33.692Z,335
2023-08-18T10:29:35.557Z,343
2023-08-18T10:30:32.961Z,346
2023-08-18T10:31:32.708Z,337
2023-08-18T10:32:33.720Z,345
2023-08-18T10:33:33.253Z,343
2023-08-18T10:34:32.917Z,334
2023-08-18T10:36:33.698Z,332
2023-08-18T10:37:32.827Z,333
2023-08-18T10:38:32.951Z,339
2023-08-18T10:39:32.758Z,353
2023-08-18T10:40:33.507Z,350
2023-08-18T10:41:33.196Z,337
2023-08-18T10:42:33.093Z,338
2023-08-18T10:43:33.099Z,328
2023-08-18T10:44:33.690Z,331
2023-08-18T10:45:33.461Z,336
2023-08-18T10:46:32.634Z,341
2023-08-18T10:47:32.749Z,346
2023-08-18T10:48:33.272Z,337
2023-08-18T10:49:33.059Z,343
2023-08-18T10:50:33.424Z,355
2023-08-18T10:51:33.036Z,344
2023-08-18T10:52:32.881Z,336
2023-08-18T10:53:32.671Z,337
2023-08-18T10:54:33.951Z,347
2023-08-18T10:55:34.164Z,352
2023-08-18T10:56:34.719Z,339
2023-08-18T10:57:34.402Z,327
2023-08-18T10:58:33.381Z,333
2023-08-18T10:59:33.293Z,330
2023-08-18T11:00:33.040Z,340
2023-08-18T11:01:32.519Z,349
2023-08-18T11:02:32.853Z,350
2023-08-18T11:03:32.588Z,349
2023-08-18T11:04:32.811Z,336
2023-08-18T11:05:33.119Z,347
2023-08-18T11:06:32.944Z,343
2023-08-18T11:07:33.477Z,341
2023-08-18T11:08:33.104Z,342
2023-08-18T11:09:32.613Z,344
2023-08-18T11:10:33.110Z,345
2023-08-18T11:11:33.141Z,337
2023-08-18T11:12:33.031Z,339
2023-08-18T11:13:32.978Z,338
2023-08-18T11:14:34.107Z,341
2023-08-18T11:15:33.240Z,339
2023-08-18T11:16:31.960Z,338
2023-08-18T11:17:32.378Z,323
2023-08-18T11:18:31.600Z,321
2023-08-18T11:19:32.050Z,333
2023-08-18T11:20:32.696Z,334
2023-08-18T11:21:32.693Z,326
2023-08-18T11:22:33.532Z,346
2023-08-18T11:23:32.499Z,350
2023-08-18T11:24:32.984Z,335
2023-08-18T11:25:32.667Z,329
2023-08-18T11:26:33.557Z,332
2023-08-18T11:27:32.963Z,328
2023-08-18T11:28:32.975Z,323
2023-08-18T11:29:32.852Z,329
2023-08-18T11:30:32.549Z,335
2023-08-18T11:31:32.101Z,334
2023-08-18T11:33:31.948Z,341
2023-08-18T11:34:33.187Z,344
2023-08-18T11:35:32.446Z,339
2023-08-18T11:36:32.134Z,334
2023-08-18T11:37:32.234Z,312
2023-08-18T11:38:31.547Z,316
2023-08-18T11:39:32.481Z,324
2023-08-18T11:40:32.703Z,335
2023-08-18T11:41:32.492Z,344
2023-08-18T11:42:33.316Z,335
2023-08-18T11:43:32.619Z,324
2023-08-18T11:44:33.255Z,327
2023-08-18T11:45:33.310Z,324
2023-08-18T11:46:33.264Z,327
2023-08-18T11:47:33.242Z,332
2023-08-18T11:48:33.077Z,329
2023-08-18T11:49:32.727Z,344
2023-08-18T11:50:33.206Z,348
2023-08-18T11:51:33.627Z,345
2023-08-18T11:52:33.250Z,337
2023-08-18T11:53:33.005Z,320
2023-08-18T11:54:32.913Z,321
2023-08-18T11:55:33.091Z,331
2023-08-18T11:56:32.800Z,335
2023-08-18T11:57:33.120Z,348
2023-08-18T11:58:33.245Z,346
2023-08-18T11:59:33.185Z,333
2023-08-18T12:00:35.030Z,329
2023-08-18T12:01:33.520Z,335
2023-08-18T12:02:33.691Z,340
2023-08-18T12:03:33.278Z,342
2023-08-18T12:04:33.710Z,336
2023-08-18T12:05:33.327Z,331
2023-08-18T12:06:32.861Z,323
2023-08-18T12:07:33.064Z,324
2023-08-18T12:08:33.344Z,328
2023-08-18T12:09:33.545Z,334
2023-08-18T12:10:33.639Z,338
2023-08-18T12:11:33.555Z,327
2023-08-18T12:12:33.300Z,339
2023-08-18T12:14:33.268Z,335
2023-08-18T12:15:32.666Z,339
2023-08-18T12:16:33.115Z,334
2023-08-18T12:17:33.586Z,330
2023-08-18T12:18:33.217Z,334
2023-08-18T12:19:33.766Z,337
2023-08-18T12:21:33.509Z,342
2023-08-18T12:22:34.020Z,345
2023-08-18T12:23:33.280Z,347
2023-08-18T12:24:34.276Z,340
2023-08-18T12:25:34.098Z,336
2023-08-18T12:28:33.304Z,327
2023-08-18T12:29:33.578Z,316
2023-08-18T12:30:33.703Z,325
2023-08-18T12:31:33.223Z,330
2023-08-18T12:32:34.001Z,326
2023-08-18T12:33:33.633Z,330
2023-08-18T12:34:33.011Z,343
2023-08-18T12:35:33.218Z,347
2023-08-18T12:36:33.432Z,350
2023-08-18T12:37:33.215Z,337
2023-08-18T12:38:33.081Z,336
2023-08-18T12:39:32.814Z,347
2023-08-18T12:40:33.369Z,350
2023-08-18T12:41:32.802Z,348
2023-08-18T12:42:33.199Z,346
2023-08-18T12:43:33.500Z,343
2023-08-18T12:45:33.072Z,344
2023-08-18T12:46:33.329Z,338
2023-08-18T12:47:32.565Z,329
2023-08-18T12:49:32.931Z,327
2023-08-18T12:50:32.764Z,325
2023-08-18T12:51:32.620Z,329
2023-08-18T12:52:33.165Z,341
2023-08-18T12:53:33.604Z,342
2023-08-18T12:54:33.013Z,333
2023-08-18T12:55:35.315Z,331
2023-08-18T12:56:33.295Z,327
2023-08-18T12:57:33.965Z,326
2023-08-18T12:58:33.122Z,322
2023-08-18T12:59:33.771Z,329
2023-08-18T13:00:34.458Z,340
2023-08-18T13:01:33.490Z,339
2023-08-18T13:02:33.746Z,330
2023-08-18T13:03:33.064Z,328
2023-08-18T13:04:33.176Z,338
2023-08-18T13:05:32.995Z,330
2023-08-18T13:06:33.075Z,322
2023-08-18T13:07:33.759Z,333
2023-08-18T13:08:32.895Z,346
2023-08-18T13:09:33.429Z,339
2023-08-18T13:10:33.793Z,343
2023-08-18T13:11:32.808Z,353
2023-08-18T13:12:32.856Z,367
2023-08-18T13:13:32.698Z,355
2023-08-18T13:14:33.191Z,337
2023-08-18T13:15:33.671Z,346
2023-08-18T13:16:33.883Z,343
2023-08-18T13:17:38.800Z,344
2023-08-18T13:18:33.459Z,335
2023-08-18T13:19:33.059Z,327
2023-08-18T13:21:32.915Z,328
2023-08-18T13:23:33.852Z,316
2023-08-18T13:24:33.223Z,311
2023-08-18T13:25:34.040Z,316
2023-08-18T13:26:33.369Z,331
2023-08-18T13:27:33.648Z,329
2023-08-18T13:29:32.947Z,327
2023-08-18T13:30:33.753Z,337
2023-08-18T13:31:33.551Z,327
2023-08-18T13:32:33.629Z,326
2023-08-18T13:33:33.656Z,333
2023-08-18T13:34:32.773Z,334
2023-08-18T13:35:32.776Z,318
2023-08-18T13:36:33.571Z,313
2023-08-18T13:37:32.652Z,319
2023-08-18T13:38:33.191Z,330
2023-08-18T13:39:32.808Z,312
2023-08-18T13:40:32.914Z,313
2023-08-18T13:41:32.380Z,301
2023-08-18T13:42:33.168Z,303
2023-08-18T13:43:32.832Z,325
2023-08-18T13:44:32.625Z,320
2023-08-18T13:45:33.322Z,322
2023-08-18T13:47:32.525Z,325
2023-08-18T13:48:33.374Z,326
2023-08-18T13:49:32.581Z,314
2023-08-18T13:50:33.035Z,305
2023-08-18T13:51:32.868Z,316
2023-08-18T13:52:33.660Z,312
2023-08-18T13:53:32.335Z,317
2023-08-18T13:54:33.061Z,318
2023-08-18T13:55:32.461Z,308
2023-08-18T13:56:32.961Z,314
2023-08-18T13:57:32.790Z,315
2023-08-18T13:58:32.529Z,311
2023-08-18T13:59:33.185Z,308
2023-08-18T14:00:34.656Z,306
2023-08-18T14:01:33.209Z,303
2023-08-18T14:02:33.353Z,312
2023-08-18T14:03:32.434Z,318
2023-08-18T14:04:33.026Z,319
2023-08-18T14:05:33.057Z,316
2023-08-18T14:06:31.990Z,305
2023-08-18T14:07:32.393Z,301
2023-08-18T14:08:32.508Z,298
2023-08-18T14:09:32.561Z,301
2023-08-18T14:10:32.016Z,308
2023-08-18T14:11:32.230Z,307
2023-08-18T14:12:32.353Z,313
2023-08-18T14:13:34.008Z,317
2023-08-18T14:14:31.689Z,310
2023-08-18T14:15:32.300Z,307
2023-08-18T14:17:32.487Z,303
2023-08-18T14:18:32.074Z,307
2023-08-18T14:19:32.610Z,301
2023-08-18T14:20:32.117Z,305
2023-08-18T14:21:32.509Z,311
2023-08-18T14:22:32.327Z,300
2023-08-18T14:23:32.216Z,296
2023-08-18T14:24:31.993Z,288
2023-08-18T14:25:33.930Z,291
2023-08-18T14:26:31.706Z,289
2023-08-18T14:27:32.443Z,287
2023-08-18T14:28:32.154Z,286
2023-08-18T14:29:32.049Z,304
2023-08-18T14:30:32.530Z,302
2023-08-18T14:31:31.877Z,306
2023-08-18T14:32:33.214Z,307
2023-08-18T14:33:45.717Z,318
2023-08-18T14:35:32.486Z,320
2023-08-18T14:36:33.440Z,301
2023-08-18T14:37:32.161Z,290